sensor_id;sensor_type;location;lat;lon;timestamp;temperature;humidity
9772;DHT22;4925;52.588;13.370;2023-04-01T00:00:52;10.80;99.90
9772;DHT22;4925;52.588;13.370;2023-04-01T00:03:19;10.90;99.90
9772;DHT22;4925;52.588;13.370;2023-04-01T00:05:45;11.00;99.90
9772;DHT22;4925;52.588;13.370;2023-04-01T00:08:11;10.90;99.90
9772;DHT22;4925;52.588;13.370;2023-04-01T00:10:37;11.00;99.90
9772;DHT22;4925;52.588;13.370;2023-04-01T00:13:02;10.90;99.90
9772;DHT22;4925;52.588;13.370;2023-04-01T00:15:28;11.00;99.90
9772;DHT22;4925;52.588;13.370;2023-04-01T00:17:54;11.00;99.90
9772;DHT22;4925;52.588;13.370;2023-04-01T00:20:21;11.10;99.90
9772;DHT22;4925;52.588;13.370;2023-04-01T00:22:46;11.20;99.90
9772;DHT22;4925;52.588;13.370;2023-04-01T00:25:12;11.20;99.90
9772;DHT22;4925;52.588;13.370;2023-04-01T00:27:38;11.10;99.90
9772;DHT22;4925;52.588;13.370;2023-04-01T00:30:04;11.00;99.90
9772;DHT22;4925;52.588;13.370;2023-04-01T00:32:31;11.10;99.90
9772;DHT22;4925;52.588;13.370;2023-04-01T00:34:56;11.10;99.90
9772;DHT22;4925;52.588;13.370;2023-04-01T00:37:24;11.10;99.90
9772;DHT22;4925;52.588;13.370;2023-04-01T00:39:50;11.10;99.90
9772;DHT22;4925;52.588;13.370;2023-04-01T00:42:15;11.20;99.90
9772;DHT22;4925;52.588;13.370;2023-04-01T00:44:42;11.20;99.90
9772;DHT22;4925;52.588;13.370;2023-04-01T00:47:08;11.10;99.90
9772;DHT22;4925;52.588;13.370;2023-04-01T00:49:40;11.10;99.90
9772;DHT22;4925;52.588;13.370;2023-04-01T00:52:07;11.10;99.90
9772;DHT22;4925;52.588;13.370;2023-04-01T00:54:34;11.10;99.90
9772;DHT22;4925;52.588;13.370;2023-04-01T00:57:10;11.00;99.90
9772;DHT22;4925;52.588;13.370;2023-04-01T00:59:41;11.00;99.90
9772;DHT22;4925;52.588;13.370;2023-04-01T01:02:10;11.00;99.90
9772;DHT22;4925;52.588;13.370;2023-04-01T01:04:37;11.00;99.90
9772;DHT22;4925;52.588;13.370;2023-04-01T01:07:28;10.90;99.90
9772;DHT22;4925;52.588;13.370;2023-04-01T01:12:40;11.00;99.90
9772;DHT22;4925;52.588;13.370;2023-04-01T01:18:18;10.90;99.90
9772;DHT22;4925;52.588;13.370;2023-04-01T01:37:01;11.70;99.90
9772;DHT22;4925;52.588;13.370;2023-04-01T01:39:30;11.70;99.90
9772;DHT22;4925;52.588;13.370;2023-04-01T01:42:00;11.60;99.90
9772;DHT22;4925;52.588;13.370;2023-04-01T01:44:28;11.60;99.90
9772;DHT22;4925;52.588;13.370;2023-04-01T01:46:56;11.50;99.90
9772;DHT22;4925;52.588;13.370;2023-04-01T01:49:22;11.40;99.90
9772;DHT22;4925;52.588;13.370;2023-04-01T01:51:48;11.50;99.90
9772;DHT22;4925;52.588;13.370;2023-04-01T01:54:18;11.20;99.90
9772;DHT22;4925;52.588;13.370;2023-04-01T01:56:47;11.10;99.90
9772;DHT22;4925;52.588;13.370;2023-04-01T01:59:16;11.00;99.90
9772;DHT22;4925;52.588;13.370;2023-04-01T02:01:46;10.80;99.90
9772;DHT22;4925;52.588;13.370;2023-04-01T02:04:14;10.70;99.90
9772;DHT22;4925;52.588;13.370;2023-04-01T02:06:49;10.60;99.90
9772;DHT22;4925;52.588;13.370;2023-04-01T02:09:17;10.50;99.90
9772;DHT22;4925;52.588;13.370;2023-04-01T02:11:57;10.50;99.90
9772;DHT22;4925;52.588;13.370;2023-04-01T02:14:45;10.50;99.90
9772;DHT22;4925;52.588;13.370;2023-04-01T02:17:16;10.50;99.90
9772;DHT22;4925;52.588;13.370;2023-04-01T02:19:53;10.50;99.90
9772;DHT22;4925;52.588;13.370;2023-04-01T02:22:31;10.40;99.90
9772;DHT22;4925;52.588;13.370;2023-04-01T02:25:07;10.30;99.90
9772;DHT22;4925;52.588;13.370;2023-04-01T02:27:34;10.40;99.90
9772;DHT22;4925;52.588;13.370;2023-04-01T02:29:59;10.40;99.90
9772;DHT22;4925;52.588;13.370;2023-04-01T02:32:27;10.30;99.90
9772;DHT22;4925;52.588;13.370;2023-04-01T02:34:53;10.40;99.90
9772;DHT22;4925;52.588;13.370;2023-04-01T02:37:20;10.30;99.90
9772;DHT22;4925;52.588;13.370;2023-04-01T02:39:46;10.40;99.90
9772;DHT22;4925;52.588;13.370;2023-04-01T02:42:12;10.40;99.90
9772;DHT22;4925;52.588;13.370;2023-04-01T02:44:38;10.40;99.90
9772;DHT22;4925;52.588;13.370;2023-04-01T02:47:04;10.50;99.90
9772;DHT22;4925;52.588;13.370;2023-04-01T02:49:29;10.50;99.90
9772;DHT22;4925;52.588;13.370;2023-04-01T02:51:55;10.50;99.90
9772;DHT22;4925;52.588;13.370;2023-04-01T02:54:21;10.50;99.90
9772;DHT22;4925;52.588;13.370;2023-04-01T02:56:46;10.60;99.90
9772;DHT22;4925;52.588;13.370;2023-04-01T02:59:12;10.50;99.90
9772;DHT22;4925;52.588;13.370;2023-04-01T03:01:38;10.50;99.90
9772;DHT22;4925;52.588;13.370;2023-04-01T03:04:04;10.60;99.90
9772;DHT22;4925;52.588;13.370;2023-04-01T03:06:30;10.70;99.90
9772;DHT22;4925;52.588;13.370;2023-04-01T03:08:56;10.70;99.90
9772;DHT22;4925;52.588;13.370;2023-04-01T03:11:22;10.60;99.90
9772;DHT22;4925;52.588;13.370;2023-04-01T03:13:48;10.70;99.90
9772;DHT22;4925;52.588;13.370;2023-04-01T03:16:14;10.90;99.90
9772;DHT22;4925;52.588;13.370;2023-04-01T03:18:39;11.10;99.90
9772;DHT22;4925;52.588;13.370;2023-04-01T03:21:23;11.30;99.90
9772;DHT22;4925;52.588;13.370;2023-04-01T03:23:49;11.40;99.90
9772;DHT22;4925;52.588;13.370;2023-04-01T03:26:15;11.50;99.90
9772;DHT22;4925;52.588;13.370;2023-04-01T03:28:40;11.70;99.90
9772;DHT22;4925;52.588;13.370;2023-04-01T03:31:06;11.80;99.90
9772;DHT22;4925;52.588;13.370;2023-04-01T03:33:32;11.90;99.90
9772;DHT22;4925;52.588;13.370;2023-04-01T03:35:58;12.00;99.90
9772;DHT22;4925;52.588;13.370;2023-04-01T03:38:24;12.10;99.90
9772;DHT22;4925;52.588;13.370;2023-04-01T03:40:49;12.20;99.90
9772;DHT22;4925;52.588;13.370;2023-04-01T03:43:15;12.30;99.90
9772;DHT22;4925;52.588;13.370;2023-04-01T03:45:46;12.30;99.90
9772;DHT22;4925;52.588;13.370;2023-04-01T03:48:13;12.30;99.90
9772;DHT22;4925;52.588;13.370;2023-04-01T03:50:38;12.40;99.90
9772;DHT22;4925;52.588;13.370;2023-04-01T03:53:04;12.40;99.90
9772;DHT22;4925;52.588;13.370;2023-04-01T03:55:30;12.50;99.90
9772;DHT22;4925;52.588;13.370;2023-04-01T03:57:55;12.50;99.90
9772;DHT22;4925;52.588;13.370;2023-04-01T04:00:21;12.30;99.90
9772;DHT22;4925;52.588;13.370;2023-04-01T04:02:47;12.30;99.90
9772;DHT22;4925;52.588;13.370;2023-04-01T04:05:13;12.20;99.90
9772;DHT22;4925;52.588;13.370;2023-04-01T04:07:39;11.90;99.90
9772;DHT22;4925;52.588;13.370;2023-04-01T04:10:05;11.90;99.90
9772;DHT22;4925;52.588;13.370;2023-04-01T04:12:31;12.00;99.90
9772;DHT22;4925;52.588;13.370;2023-04-01T04:14:57;12.00;99.90
9772;DHT22;4925;52.588;13.370;2023-04-01T04:17:23;12.10;99.90
9772;DHT22;4925;52.588;13.370;2023-04-01T04:19:48;12.20;99.90
9772;DHT22;4925;52.588;13.370;2023-04-01T04:22:14;12.20;99.90
9772;DHT22;4925;52.588;13.370;2023-04-01T04:24:40;11.90;99.90
9772;DHT22;4925;52.588;13.370;2023-04-01T04:27:06;11.80;99.90
9772;DHT22;4925;52.588;13.370;2023-04-01T04:29:31;11.80;99.90
9772;DHT22;4925;52.588;13.370;2023-04-01T04:31:57;11.60;99.90
9772;DHT22;4925;52.588;13.370;2023-04-01T04:34:23;11.50;99.90
9772;DHT22;4925;52.588;13.370;2023-04-01T04:36:48;11.30;99.90
9772;DHT22;4925;52.588;13.370;2023-04-01T04:39:15;11.50;99.90
9772;DHT22;4925;52.588;13.370;2023-04-01T04:41:41;11.40;99.90
9772;DHT22;4925;52.588;13.370;2023-04-01T04:44:07;11.50;99.90
9772;DHT22;4925;52.588;13.370;2023-04-01T04:46:33;11.60;99.90
9772;DHT22;4925;52.588;13.370;2023-04-01T04:48:59;11.70;99.90
9772;DHT22;4925;52.588;13.370;2023-04-01T04:51:25;11.90;99.90
9772;DHT22;4925;52.588;13.370;2023-04-01T04:53:51;12.00;99.90
9772;DHT22;4925;52.588;13.370;2023-04-01T04:56:21;11.90;99.90
9772;DHT22;4925;52.588;13.370;2023-04-01T04:58:47;12.00;99.90
9772;DHT22;4925;52.588;13.370;2023-04-01T05:01:14;12.10;99.90
9772;DHT22;4925;52.588;13.370;2023-04-01T05:03:41;12.10;99.90
9772;DHT22;4925;52.588;13.370;2023-04-01T05:06:08;12.20;99.90
9772;DHT22;4925;52.588;13.370;2023-04-01T05:08:35;12.30;99.90
9772;DHT22;4925;52.588;13.370;2023-04-01T05:11:01;12.40;99.90
9772;DHT22;4925;52.588;13.370;2023-04-01T05:13:27;12.40;99.90
9772;DHT22;4925;52.588;13.370;2023-04-01T05:15:53;12.50;99.90
9772;DHT22;4925;52.588;13.370;2023-04-01T05:18:19;12.50;99.90
9772;DHT22;4925;52.588;13.370;2023-04-01T05:20:49;12.50;99.90
9772;DHT22;4925;52.588;13.370;2023-04-01T05:23:16;12.60;99.90
9772;DHT22;4925;52.588;13.370;2023-04-01T05:25:42;12.60;99.90
9772;DHT22;4925;52.588;13.370;2023-04-01T05:28:10;12.60;99.90
9772;DHT22;4925;52.588;13.370;2023-04-01T05:30:36;12.70;99.90
9772;DHT22;4925;52.588;13.370;2023-04-01T05:33:02;12.70;99.90
9772;DHT22;4925;52.588;13.370;2023-04-01T05:35:28;12.80;99.90
9772;DHT22;4925;52.588;13.370;2023-04-01T05:37:53;12.70;99.90
9772;DHT22;4925;52.588;13.370;2023-04-01T05:40:19;12.80;99.90
9772;DHT22;4925;52.588;13.370;2023-04-01T05:42:45;12.90;99.90
9772;DHT22;4925;52.588;13.370;2023-04-01T05:45:11;12.90;99.90
9772;DHT22;4925;52.588;13.370;2023-04-01T05:47:37;12.90;99.90
9772;DHT22;4925;52.588;13.370;2023-04-01T05:50:02;12.80;99.90
9772;DHT22;4925;52.588;13.370;2023-04-01T05:52:28;12.90;99.90
9772;DHT22;4925;52.588;13.370;2023-04-01T05:54:54;13.00;99.90
9772;DHT22;4925;52.588;13.370;2023-04-01T05:57:19;13.00;99.90
9772;DHT22;4925;52.588;13.370;2023-04-01T05:59:46;13.00;99.90
9772;DHT22;4925;52.588;13.370;2023-04-01T06:02:11;13.00;99.90
9772;DHT22;4925;52.588;13.370;2023-04-01T06:04:39;13.00;99.90
9772;DHT22;4925;52.588;13.370;2023-04-01T06:07:11;13.10;99.90
9772;DHT22;4925;52.588;13.370;2023-04-01T06:09:37;13.10;99.90
9772;DHT22;4925;52.588;13.370;2023-04-01T06:15:19;13.10;99.90
9772;DHT22;4925;52.588;13.370;2023-04-01T06:48:30;13.40;99.90
9772;DHT22;4925;52.588;13.370;2023-04-01T06:51:13;13.40;99.90
9772;DHT22;4925;52.588;13.370;2023-04-01T06:56:15;13.30;99.90
9772;DHT22;4925;52.588;13.370;2023-04-01T06:58:44;13.30;99.90
9772;DHT22;4925;52.588;13.370;2023-04-01T07:01:20;13.10;99.90
9772;DHT22;4925;52.588;13.370;2023-04-01T07:03:55;13.00;99.90
9772;DHT22;4925;52.588;13.370;2023-04-01T07:06:32;13.00;99.90
9772;DHT22;4925;52.588;13.370;2023-04-01T07:09:12;13.00;99.90
9772;DHT22;4925;52.588;13.370;2023-04-01T07:11:40;13.00;99.90
9772;DHT22;4925;52.588;13.370;2023-04-01T07:17:22;12.90;99.90
9772;DHT22;4925;52.588;13.370;2023-04-01T07:20:03;13.00;99.90
9772;DHT22;4925;52.588;13.370;2023-04-01T07:22:40;13.00;99.90
9772;DHT22;4925;52.588;13.370;2023-04-01T07:27:58;13.20;99.90
9772;DHT22;4925;52.588;13.370;2023-04-01T07:30:25;13.30;99.90
9772;DHT22;4925;52.588;13.370;2023-04-01T07:33:04;13.40;99.90
9772;DHT22;4925;52.588;13.370;2023-04-01T07:38:44;13.40;99.90
9772;DHT22;4925;52.588;13.370;2023-04-01T07:41:39;13.30;99.90
9772;DHT22;4925;52.588;13.370;2023-04-01T07:47:09;13.50;99.90
9772;DHT22;4925;52.588;13.370;2023-04-01T07:56:10;13.20;99.90
9772;DHT22;4925;52.588;13.370;2023-04-01T08:02:05;12.70;99.90
9772;DHT22;4925;52.588;13.370;2023-04-01T08:23:49;12.10;99.90
9772;DHT22;4925;52.588;13.370;2023-04-01T08:26:30;12.00;99.90
9772;DHT22;4925;52.588;13.370;2023-04-01T08:29:15;11.90;99.90
9772;DHT22;4925;52.588;13.370;2023-04-01T08:32:03;11.70;99.90
9772;DHT22;4925;52.588;13.370;2023-04-01T08:34:36;11.60;99.90
9772;DHT22;4925;52.588;13.370;2023-04-01T08:37:15;11.50;99.90
9772;DHT22;4925;52.588;13.370;2023-04-01T08:39:48;11.50;99.90
9772;DHT22;4925;52.588;13.370;2023-04-01T08:50:58;11.50;99.90
9772;DHT22;4925;52.588;13.370;2023-04-01T08:53:59;11.40;99.90
9772;DHT22;4925;52.588;13.370;2023-04-01T08:57:03;11.40;99.90
9772;DHT22;4925;52.588;13.370;2023-04-01T09:05:36;11.50;99.90
9772;DHT22;4925;52.588;13.370;2023-04-01T09:08:16;11.50;99.90
9772;DHT22;4925;52.588;13.370;2023-04-01T09:36:07;11.50;99.90
9772;DHT22;4925;52.588;13.370;2023-04-01T09:41:10;11.50;99.90
9772;DHT22;4925;52.588;13.370;2023-04-01T09:57:16;11.50;99.90
9772;DHT22;4925;52.588;13.370;2023-04-01T10:08:24;11.20;99.90
9772;DHT22;4925;52.588;13.370;2023-04-01T10:33:50;11.20;99.90
9772;DHT22;4925;52.588;13.370;2023-04-01T10:36:48;11.20;99.90
9772;DHT22;4925;52.588;13.370;2023-04-01T10:45:22;10.90;99.90
9772;DHT22;4925;52.588;13.370;2023-04-01T10:53:58;10.80;99.90
9772;DHT22;4925;52.588;13.370;2023-04-01T10:59:10;10.70;99.90
9772;DHT22;4925;52.588;13.370;2023-04-01T11:07:39;10.70;99.90
9772;DHT22;4925;52.588;13.370;2023-04-01T11:44:21;10.40;99.90
9772;DHT22;4925;52.588;13.370;2023-04-01T11:47:03;10.50;99.90
9772;DHT22;4925;52.588;13.370;2023-04-01T11:55:34;10.40;99.90
9772;DHT22;4925;52.588;13.370;2023-04-01T12:01:20;10.40;99.90
9772;DHT22;4925;52.588;13.370;2023-04-01T12:04:00;10.50;99.90
9772;DHT22;4925;52.588;13.370;2023-04-01T12:06:49;10.40;99.90
9772;DHT22;4925;52.588;13.370;2023-04-01T12:09:45;10.40;99.90
9772;DHT22;4925;52.588;13.370;2023-04-01T12:12:29;10.40;99.90
9772;DHT22;4925;52.588;13.370;2023-04-01T12:20:59;10.20;99.90
9772;DHT22;4925;52.588;13.370;2023-04-01T12:31:45;10.20;99.90
9772;DHT22;4925;52.588;13.370;2023-04-01T12:34:41;10.10;99.90
9772;DHT22;4925;52.588;13.370;2023-04-01T12:43:01;10.00;99.90
9772;DHT22;4925;52.588;13.370;2023-04-01T12:45:35;9.90;99.90
9772;DHT22;4925;52.588;13.370;2023-04-01T12:57:22;9.90;99.90
9772;DHT22;4925;52.588;13.370;2023-04-01T13:08:37;9.60;99.90
9772;DHT22;4925;52.588;13.370;2023-04-01T13:19:46;9.60;99.90
9772;DHT22;4925;52.588;13.370;2023-04-01T13:27:51;9.70;99.90
9772;DHT22;4925;52.588;13.370;2023-04-01T13:32:47;9.70;99.90
9772;DHT22;4925;52.588;13.370;2023-04-01T13:35:31;9.70;99.90
9772;DHT22;4925;52.588;13.370;2023-04-01T13:38:12;9.80;99.90
9772;DHT22;4925;52.588;13.370;2023-04-01T13:44:06;9.80;99.90
9772;DHT22;4925;52.588;13.370;2023-04-01T13:46:43;9.80;99.90
9772;DHT22;4925;52.588;13.370;2023-04-01T13:52:39;9.70;99.90
9772;DHT22;4925;52.588;13.370;2023-04-01T14:00:53;9.40;99.90
9772;DHT22;4925;52.588;13.370;2023-04-01T14:10:16;9.20;99.90
9772;DHT22;4925;52.588;13.370;2023-04-01T14:15:18;9.20;99.90
9772;DHT22;4925;52.588;13.370;2023-04-01T14:18:04;9.10;99.90
9772;DHT22;4925;52.588;13.370;2023-04-01T14:26:18;9.00;99.90
9772;DHT22;4925;52.588;13.370;2023-04-01T14:29:15;9.00;99.90
9772;DHT22;4925;52.588;13.370;2023-04-01T14:31:58;9.00;99.90
9772;DHT22;4925;52.588;13.370;2023-04-01T14:45:45;9.00;99.90
9772;DHT22;4925;52.588;13.370;2023-04-01T14:56:47;8.90;99.90
9772;DHT22;4925;52.588;13.370;2023-04-01T15:02:01;8.80;99.90
9772;DHT22;4925;52.588;13.370;2023-04-01T15:12:40;8.60;99.90
9772;DHT22;4925;52.588;13.370;2023-04-01T15:20:42;8.40;99.90
9772;DHT22;4925;52.588;13.370;2023-04-01T15:31:25;8.40;99.90
9772;DHT22;4925;52.588;13.370;2023-04-01T15:55:37;8.50;99.90
9772;DHT22;4925;52.588;13.370;2023-04-01T16:20:58;8.20;99.90
9772;DHT22;4925;52.588;13.370;2023-04-01T16:29:11;8.20;99.90
9772;DHT22;4925;52.588;13.370;2023-04-01T16:31:46;8.10;99.90
9772;DHT22;4925;52.588;13.370;2023-04-01T16:34:33;8.10;99.90
9772;DHT22;4925;52.588;13.370;2023-04-01T16:37:20;8.00;99.90
9772;DHT22;4925;52.588;13.370;2023-04-01T16:43:28;7.90;99.90
9772;DHT22;4925;52.588;13.370;2023-04-01T16:46:15;8.00;99.90
9772;DHT22;4925;52.588;13.370;2023-04-01T16:51:40;7.70;99.90
9772;DHT22;4925;52.588;13.370;2023-04-01T16:59:38;7.60;99.90
9772;DHT22;4925;52.588;13.370;2023-04-01T17:02:17;7.60;99.90
9772;DHT22;4925;52.588;13.370;2023-04-01T17:05:03;7.40;99.90
9772;DHT22;4925;52.588;13.370;2023-04-01T17:18:23;7.30;99.90
9772;DHT22;4925;52.588;13.370;2023-04-01T17:21:02;7.30;99.90
9772;DHT22;4925;52.588;13.370;2023-04-01T17:23:36;7.30;99.90
9772;DHT22;4925;52.588;13.370;2023-04-01T17:26:17;7.30;99.90
9772;DHT22;4925;52.588;13.370;2023-04-01T17:29:31;7.20;99.90
9772;DHT22;4925;52.588;13.370;2023-04-01T17:42:22;6.90;99.90
9772;DHT22;4925;52.588;13.370;2023-04-01T17:52:47;6.60;99.90
9772;DHT22;4925;52.588;13.370;2023-04-01T18:04:07;6.60;99.90
9772;DHT22;4925;52.588;13.370;2023-04-01T18:07:15;6.60;99.90
9772;DHT22;4925;52.588;13.370;2023-04-01T18:10:07;6.50;99.90
9772;DHT22;4925;52.588;13.370;2023-04-01T18:23:35;6.50;99.90
9772;DHT22;4925;52.588;13.370;2023-04-01T18:26:08;6.50;99.90
9772;DHT22;4925;52.588;13.370;2023-04-01T18:31:08;6.40;99.90
9772;DHT22;4925;52.588;13.370;2023-04-01T18:33:46;6.30;99.90
9772;DHT22;4925;52.588;13.370;2023-04-01T18:38:57;6.20;99.90
9772;DHT22;4925;52.588;13.370;2023-04-01T18:47:21;6.10;99.90
9772;DHT22;4925;52.588;13.370;2023-04-01T18:49:54;6.10;99.90
9772;DHT22;4925;52.588;13.370;2023-04-01T18:52:25;6.10;99.90
9772;DHT22;4925;52.588;13.370;2023-04-01T18:57:54;6.00;99.90
9772;DHT22;4925;52.588;13.370;2023-04-01T19:00:34;6.00;99.90
9772;DHT22;4925;52.588;13.370;2023-04-01T19:06:20;6.00;99.90
9772;DHT22;4925;52.588;13.370;2023-04-01T19:08:48;6.00;99.90
9772;DHT22;4925;52.588;13.370;2023-04-01T19:16:53;5.90;99.90
9772;DHT22;4925;52.588;13.370;2023-04-01T19:19:35;5.80;99.90
9772;DHT22;4925;52.588;13.370;2023-04-01T19:31:21;5.70;99.90
9772;DHT22;4925;52.588;13.370;2023-04-01T19:36:56;5.70;99.90
9772;DHT22;4925;52.588;13.370;2023-04-01T19:39:48;5.70;99.90
9772;DHT22;4925;52.588;13.370;2023-04-01T19:42:43;5.70;99.90
9772;DHT22;4925;52.588;13.370;2023-04-01T19:45:41;5.70;99.90
9772;DHT22;4925;52.588;13.370;2023-04-01T19:50:53;5.60;99.90
9772;DHT22;4925;52.588;13.370;2023-04-01T19:53:34;5.60;99.90
9772;DHT22;4925;52.588;13.370;2023-04-01T19:56:13;5.50;99.90
9772;DHT22;4925;52.588;13.370;2023-04-01T19:58:45;5.50;99.90
9772;DHT22;4925;52.588;13.370;2023-04-01T20:01:34;5.40;99.90
9772;DHT22;4925;52.588;13.370;2023-04-01T20:04:47;5.30;99.90
9772;DHT22;4925;52.588;13.370;2023-04-01T20:10:04;5.40;99.90
9772;DHT22;4925;52.588;13.370;2023-04-01T20:15:04;5.30;99.90
9772;DHT22;4925;52.588;13.370;2023-04-01T20:17:45;5.30;99.90
9772;DHT22;4925;52.588;13.370;2023-04-01T20:20:23;5.30;99.90
9772;DHT22;4925;52.588;13.370;2023-04-01T20:30:59;5.40;99.90
9772;DHT22;4925;52.588;13.370;2023-04-01T20:38:58;5.20;99.90
9772;DHT22;4925;52.588;13.370;2023-04-01T20:50:46;5.20;99.90
9772;DHT22;4925;52.588;13.370;2023-04-01T20:53:20;5.20;99.90
9772;DHT22;4925;52.588;13.370;2023-04-01T21:10:00;5.00;99.90
9772;DHT22;4925;52.588;13.370;2023-04-01T21:12:50;5.00;99.90
9772;DHT22;4925;52.588;13.370;2023-04-01T21:15:25;5.00;99.90
9772;DHT22;4925;52.588;13.370;2023-04-01T21:21:13;5.00;99.90
9772;DHT22;4925;52.588;13.370;2023-04-01T21:24:29;4.90;99.90
9772;DHT22;4925;52.588;13.370;2023-04-01T21:29:55;4.90;99.90
9772;DHT22;4925;52.588;13.370;2023-04-01T21:37:57;4.90;99.90
9772;DHT22;4925;52.588;13.370;2023-04-01T21:49:04;4.80;99.90
9772;DHT22;4925;52.588;13.370;2023-04-01T21:54:39;4.80;99.90
9772;DHT22;4925;52.588;13.370;2023-04-01T22:05:04;4.80;99.90
9772;DHT22;4925;52.588;13.370;2023-04-01T22:07:47;4.80;99.90
9772;DHT22;4925;52.588;13.370;2023-04-01T22:10:38;4.80;99.90
9772;DHT22;4925;52.588;13.370;2023-04-01T22:13:35;4.90;99.90
9772;DHT22;4925;52.588;13.370;2023-04-01T22:16:32;4.80;99.90
9772;DHT22;4925;52.588;13.370;2023-04-01T22:26:52;4.70;99.90
9772;DHT22;4925;52.588;13.370;2023-04-01T22:35:09;4.80;99.90
9772;DHT22;4925;52.588;13.370;2023-04-01T22:38:05;4.80;99.90
9772;DHT22;4925;52.588;13.370;2023-04-01T22:40:47;4.80;99.90
9772;DHT22;4925;52.588;13.370;2023-04-01T22:46:03;4.80;99.90
9772;DHT22;4925;52.588;13.370;2023-04-01T22:54:11;4.80;99.90
9772;DHT22;4925;52.588;13.370;2023-04-01T22:56:44;4.80;99.90
9772;DHT22;4925;52.588;13.370;2023-04-01T23:02:00;4.90;99.90
9772;DHT22;4925;52.588;13.370;2023-04-01T23:04:32;4.90;99.90
9772;DHT22;4925;52.588;13.370;2023-04-01T23:07:02;4.90;99.90
9772;DHT22;4925;52.588;13.370;2023-04-01T23:09:34;4.90;99.90
9772;DHT22;4925;52.588;13.370;2023-04-01T23:12:08;5.00;99.90
9772;DHT22;4925;52.588;13.370;2023-04-01T23:14:50;5.00;99.90
9772;DHT22;4925;52.588;13.370;2023-04-01T23:26:25;4.90;99.90
9772;DHT22;4925;52.588;13.370;2023-04-01T23:28:56;4.90;99.90
9772;DHT22;4925;52.588;13.370;2023-04-01T23:36:38;4.80;99.90
9772;DHT22;4925;52.588;13.370;2023-04-01T23:39:34;4.80;99.90
9772;DHT22;4925;52.588;13.370;2023-04-01T23:42:14;4.80;99.90
9772;DHT22;4925;52.588;13.370;2023-04-01T23:44:42;4.70;99.90
9772;DHT22;4925;52.588;13.370;2023-04-01T23:47:14;4.70;99.90
9772;DHT22;4925;52.588;13.370;2023-04-01T23:49:51;4.70;99.90
9772;DHT22;4925;52.588;13.370;2023-04-01T23:52:27;4.70;99.90
9772;DHT22;4925;52.588;13.370;2023-04-01T23:54:55;4.70;99.90
9772;DHT22;4925;52.588;13.370;2023-04-01T23:57:31;4.70;99.90
